sensor_id;sensor_type;location;lat;lon;timestamp;temperature;humidity
68766;DHT22;55756;45.582;11.484;2022-07-19T00:01:29;26.40;51.10
68766;DHT22;55756;45.582;11.484;2022-07-19T00:03:58;26.30;51.50
68766;DHT22;55756;45.582;11.484;2022-07-19T00:06:24;26.30;51.10
68766;DHT22;55756;45.582;11.484;2022-07-19T00:08:50;26.20;50.90
68766;DHT22;55756;45.582;11.484;2022-07-19T00:11:15;26.20;50.90
68766;DHT22;55756;45.582;11.484;2022-07-19T00:13:41;26.10;51.20
68766;DHT22;55756;45.582;11.484;2022-07-19T00:16:07;26.10;51.20
68766;DHT22;55756;45.582;11.484;2022-07-19T00:18:33;26.10;51.60
68766;DHT22;55756;45.582;11.484;2022-07-19T00:20:59;26.10;52.00
68766;DHT22;55756;45.582;11.484;2022-07-19T00:23:25;26.00;52.10
68766;DHT22;55756;45.582;11.484;2022-07-19T00:25:51;26.00;52.30
68766;DHT22;55756;45.582;11.484;2022-07-19T00:28:17;25.90;52.30
68766;DHT22;55756;45.582;11.484;2022-07-19T00:30:42;25.90;52.40
68766;DHT22;55756;45.582;11.484;2022-07-19T00:33:08;25.90;52.50
68766;DHT22;55756;45.582;11.484;2022-07-19T00:35:35;25.90;52.50
68766;DHT22;55756;45.582;11.484;2022-07-19T00:38:05;25.90;52.70
68766;DHT22;55756;45.582;11.484;2022-07-19T00:40:31;25.90;53.20
68766;DHT22;55756;45.582;11.484;2022-07-19T00:42:57;25.80;52.60
68766;DHT22;55756;45.582;11.484;2022-07-19T00:45:23;25.60;52.80
68766;DHT22;55756;45.582;11.484;2022-07-19T00:47:50;25.50;52.90
68766;DHT22;55756;45.582;11.484;2022-07-19T00:50:17;25.40;53.20
68766;DHT22;55756;45.582;11.484;2022-07-19T00:52:43;25.40;53.50
68766;DHT22;55756;45.582;11.484;2022-07-19T00:55:11;25.30;53.60
68766;DHT22;55756;45.582;11.484;2022-07-19T00:57:38;25.20;53.80
68766;DHT22;55756;45.582;11.484;2022-07-19T01:00:06;25.30;53.90
68766;DHT22;55756;45.582;11.484;2022-07-19T01:02:33;25.20;54.10
68766;DHT22;55756;45.582;11.484;2022-07-19T01:04:59;25.20;54.10
68766;DHT22;55756;45.582;11.484;2022-07-19T01:07:26;25.10;54.20
68766;DHT22;55756;45.582;11.484;2022-07-19T01:09:52;25.10;54.70
68766;DHT22;55756;45.582;11.484;2022-07-19T01:12:19;25.00;54.60
68766;DHT22;55756;45.582;11.484;2022-07-19T01:14:48;25.10;54.40
68766;DHT22;55756;45.582;11.484;2022-07-19T01:17:14;25.20;54.10
68766;DHT22;55756;45.582;11.484;2022-07-19T01:19:42;25.30;53.70
68766;DHT22;55756;45.582;11.484;2022-07-19T01:22:08;25.30;53.50
68766;DHT22;55756;45.582;11.484;2022-07-19T01:24:34;25.30;53.60
68766;DHT22;55756;45.582;11.484;2022-07-19T01:27:00;25.30;53.80
68766;DHT22;55756;45.582;11.484;2022-07-19T01:29:26;25.20;53.90
68766;DHT22;55756;45.582;11.484;2022-07-19T01:31:52;25.20;53.80
68766;DHT22;55756;45.582;11.484;2022-07-19T01:34:17;25.30;53.40
68766;DHT22;55756;45.582;11.484;2022-07-19T01:36:43;25.40;53.00
68766;DHT22;55756;45.582;11.484;2022-07-19T01:39:09;25.40;52.50
68766;DHT22;55756;45.582;11.484;2022-07-19T01:41:35;25.50;52.10
68766;DHT22;55756;45.582;11.484;2022-07-19T01:44:00;25.50;51.90
68766;DHT22;55756;45.582;11.484;2022-07-19T01:46:26;25.50;51.50
68766;DHT22;55756;45.582;11.484;2022-07-19T01:48:52;25.60;52.00
68766;DHT22;55756;45.582;11.484;2022-07-19T01:51:18;25.50;53.60
68766;DHT22;55756;45.582;11.484;2022-07-19T01:53:44;25.40;53.60
68766;DHT22;55756;45.582;11.484;2022-07-19T01:56:09;25.40;53.70
68766;DHT22;55756;45.582;11.484;2022-07-19T01:58:35;25.30;54.20
68766;DHT22;55756;45.582;11.484;2022-07-19T02:01:01;25.20;54.60
68766;DHT22;55756;45.582;11.484;2022-07-19T02:03:27;25.10;54.50
68766;DHT22;55756;45.582;11.484;2022-07-19T02:05:53;25.00;55.10
68766;DHT22;55756;45.582;11.484;2022-07-19T02:08:19;24.90;55.60
68766;DHT22;55756;45.582;11.484;2022-07-19T02:10:45;24.70;56.10
68766;DHT22;55756;45.582;11.484;2022-07-19T02:13:10;24.60;56.50
68766;DHT22;55756;45.582;11.484;2022-07-19T02:15:36;24.60;56.80
68766;DHT22;55756;45.582;11.484;2022-07-19T02:18:02;24.50;56.80
68766;DHT22;55756;45.582;11.484;2022-07-19T02:20:28;24.50;56.70
68766;DHT22;55756;45.582;11.484;2022-07-19T02:22:54;24.50;56.80
68766;DHT22;55756;45.582;11.484;2022-07-19T02:25:20;24.50;56.70
68766;DHT22;55756;45.582;11.484;2022-07-19T02:27:45;24.50;56.50
68766;DHT22;55756;45.582;11.484;2022-07-19T02:30:12;24.50;56.70
68766;DHT22;55756;45.582;11.484;2022-07-19T02:32:38;24.50;56.90
68766;DHT22;55756;45.582;11.484;2022-07-19T02:35:06;24.50;56.90
68766;DHT22;55756;45.582;11.484;2022-07-19T02:37:33;24.50;56.80
68766;DHT22;55756;45.582;11.484;2022-07-19T02:39:58;24.50;56.80
68766;DHT22;55756;45.582;11.484;2022-07-19T02:42:24;24.40;56.80
68766;DHT22;55756;45.582;11.484;2022-07-19T02:44:50;24.40;56.80
68766;DHT22;55756;45.582;11.484;2022-07-19T02:47:16;24.30;57.00
68766;DHT22;55756;45.582;11.484;2022-07-19T02:49:42;24.20;57.00
68766;DHT22;55756;45.582;11.484;2022-07-19T02:52:07;24.20;57.10
68766;DHT22;55756;45.582;11.484;2022-07-19T02:54:33;24.10;57.40
68766;DHT22;55756;45.582;11.484;2022-07-19T02:56:59;24.10;57.30
68766;DHT22;55756;45.582;11.484;2022-07-19T02:59:25;24.10;57.10
68766;DHT22;55756;45.582;11.484;2022-07-19T03:01:51;24.10;57.10
68766;DHT22;55756;45.582;11.484;2022-07-19T03:04:17;24.00;57.50
68766;DHT22;55756;45.582;11.484;2022-07-19T03:06:42;24.00;57.60
68766;DHT22;55756;45.582;11.484;2022-07-19T03:09:08;24.00;57.70
68766;DHT22;55756;45.582;11.484;2022-07-19T03:11:34;24.00;57.60
68766;DHT22;55756;45.582;11.484;2022-07-19T03:14:00;24.00;57.50
68766;DHT22;55756;45.582;11.484;2022-07-19T03:16:26;24.00;57.80
68766;DHT22;55756;45.582;11.484;2022-07-19T03:18:51;24.00;57.70
68766;DHT22;55756;45.582;11.484;2022-07-19T03:21:17;24.00;57.50
68766;DHT22;55756;45.582;11.484;2022-07-19T03:23:43;23.90;57.60
68766;DHT22;55756;45.582;11.484;2022-07-19T03:26:09;23.90;57.70
68766;DHT22;55756;45.582;11.484;2022-07-19T03:28:35;23.90;57.40
68766;DHT22;55756;45.582;11.484;2022-07-19T03:31:01;24.00;57.50
68766;DHT22;55756;45.582;11.484;2022-07-19T03:33:27;24.00;57.60
68766;DHT22;55756;45.582;11.484;2022-07-19T03:35:53;24.00;57.50
68766;DHT22;55756;45.582;11.484;2022-07-19T03:38:19;24.00;57.80
68766;DHT22;55756;45.582;11.484;2022-07-19T03:40:45;24.00;57.60
68766;DHT22;55756;45.582;11.484;2022-07-19T03:43:13;24.10;58.10
68766;DHT22;55756;45.582;11.484;2022-07-19T03:45:41;24.10;58.20
68766;DHT22;55756;45.582;11.484;2022-07-19T03:48:07;24.10;57.60
68766;DHT22;55756;45.582;11.484;2022-07-19T03:50:33;24.10;57.70
68766;DHT22;55756;45.582;11.484;2022-07-19T03:52:58;24.20;57.80
68766;DHT22;55756;45.582;11.484;2022-07-19T03:55:24;24.20;57.70
68766;DHT22;55756;45.582;11.484;2022-07-19T03:57:50;24.20;57.40
68766;DHT22;55756;45.582;11.484;2022-07-19T04:00:16;24.30;57.30
68766;DHT22;55756;45.582;11.484;2022-07-19T04:02:42;24.30;57.30
68766;DHT22;55756;45.582;11.484;2022-07-19T04:05:08;24.30;57.00
68766;DHT22;55756;45.582;11.484;2022-07-19T04:07:34;24.40;56.80
68766;DHT22;55756;45.582;11.484;2022-07-19T04:10:00;24.50;56.20
68766;DHT22;55756;45.582;11.484;2022-07-19T04:12:26;24.70;55.50
68766;DHT22;55756;45.582;11.484;2022-07-19T04:14:52;24.90;55.20
68766;DHT22;55756;45.582;11.484;2022-07-19T04:17:17;25.10;55.00
68766;DHT22;55756;45.582;11.484;2022-07-19T04:19:43;25.20;54.10
68766;DHT22;55756;45.582;11.484;2022-07-19T04:22:09;25.40;53.50
68766;DHT22;55756;45.582;11.484;2022-07-19T04:24:35;25.70;52.80
68766;DHT22;55756;45.582;11.484;2022-07-19T04:27:01;25.90;52.30
68766;DHT22;55756;45.582;11.484;2022-07-19T04:29:27;26.20;51.60
68766;DHT22;55756;45.582;11.484;2022-07-19T04:31:52;26.40;50.80
68766;DHT22;55756;45.582;11.484;2022-07-19T04:34:18;26.60;50.90
68766;DHT22;55756;45.582;11.484;2022-07-19T04:36:44;26.80;50.60
68766;DHT22;55756;45.582;11.484;2022-07-19T04:39:10;26.90;50.20
68766;DHT22;55756;45.582;11.484;2022-07-19T04:41:35;27.00;50.00
68766;DHT22;55756;45.582;11.484;2022-07-19T04:44:01;27.10;49.80
68766;DHT22;55756;45.582;11.484;2022-07-19T04:46:27;27.20;49.80
68766;DHT22;55756;45.582;11.484;2022-07-19T04:48:53;27.50;49.40
68766;DHT22;55756;45.582;11.484;2022-07-19T04:51:19;27.80;48.70
68766;DHT22;55756;45.582;11.484;2022-07-19T04:53:44;28.10;48.30
68766;DHT22;55756;45.582;11.484;2022-07-19T04:56:10;28.30;48.00
68766;DHT22;55756;45.582;11.484;2022-07-19T04:58:36;28.50;47.70
68766;DHT22;55756;45.582;11.484;2022-07-19T05:01:02;28.80;46.50
68766;DHT22;55756;45.582;11.484;2022-07-19T05:03:28;29.30;44.00
68766;DHT22;55756;45.582;11.484;2022-07-19T05:05:53;29.70;42.50
68766;DHT22;55756;45.582;11.484;2022-07-19T05:08:19;30.20;41.80
68766;DHT22;55756;45.582;11.484;2022-07-19T05:10:45;30.60;41.10
68766;DHT22;55756;45.582;11.484;2022-07-19T05:13:11;31.10;40.60
68766;DHT22;55756;45.582;11.484;2022-07-19T05:15:37;31.70;39.50
68766;DHT22;55756;45.582;11.484;2022-07-19T05:18:02;32.20;38.50
68766;DHT22;55756;45.582;11.484;2022-07-19T05:20:28;32.70;37.90
68766;DHT22;55756;45.582;11.484;2022-07-19T05:22:54;33.10;36.90
68766;DHT22;55756;45.582;11.484;2022-07-19T05:25:20;33.40;36.70
68766;DHT22;55756;45.582;11.484;2022-07-19T05:27:46;33.60;36.30
68766;DHT22;55756;45.582;11.484;2022-07-19T05:30:12;33.80;36.40
68766;DHT22;55756;45.582;11.484;2022-07-19T05:32:38;34.30;35.40
68766;DHT22;55756;45.582;11.484;2022-07-19T05:35:04;34.50;35.30
68766;DHT22;55756;45.582;11.484;2022-07-19T05:37:30;35.00;34.80
68766;DHT22;55756;45.582;11.484;2022-07-19T05:39:56;35.30;34.60
68766;DHT22;55756;45.582;11.484;2022-07-19T05:42:22;35.60;34.30
68766;DHT22;55756;45.582;11.484;2022-07-19T05:44:48;35.90;33.80
68766;DHT22;55756;45.582;11.484;2022-07-19T05:47:13;36.20;33.10
68766;DHT22;55756;45.582;11.484;2022-07-19T05:49:41;36.30;33.10
68766;DHT22;55756;45.582;11.484;2022-07-19T05:52:07;37.10;31.80
68766;DHT22;55756;45.582;11.484;2022-07-19T05:54:32;37.80;30.60
68766;DHT22;55756;45.582;11.484;2022-07-19T05:56:58;38.50;29.90
68766;DHT22;55756;45.582;11.484;2022-07-19T05:59:24;39.40;28.60
68766;DHT22;55756;45.582;11.484;2022-07-19T06:01:50;40.70;27.60
68766;DHT22;55756;45.582;11.484;2022-07-19T06:04:16;42.00;26.50
68766;DHT22;55756;45.582;11.484;2022-07-19T06:06:42;41.20;26.80
68766;DHT22;55756;45.582;11.484;2022-07-19T06:09:08;41.20;26.60
68766;DHT22;55756;45.582;11.484;2022-07-19T06:11:35;41.90;26.10
68766;DHT22;55756;45.582;11.484;2022-07-19T06:14:02;43.10;24.90
68766;DHT22;55756;45.582;11.484;2022-07-19T06:16:28;44.40;24.00
68766;DHT22;55756;45.582;11.484;2022-07-19T06:18:54;45.70;22.90
68766;DHT22;55756;45.582;11.484;2022-07-19T06:21:21;47.00;21.80
68766;DHT22;55756;45.582;11.484;2022-07-19T06:23:47;47.10;21.00
68766;DHT22;55756;45.582;11.484;2022-07-19T06:26:14;47.50;21.00
68766;DHT22;55756;45.582;11.484;2022-07-19T06:28:40;48.20;20.60
68766;DHT22;55756;45.582;11.484;2022-07-19T06:31:15;48.50;19.90
68766;DHT22;55756;45.582;11.484;2022-07-19T06:33:44;48.60;19.80
68766;DHT22;55756;45.582;11.484;2022-07-19T06:36:10;47.50;20.00
68766;DHT22;55756;45.582;11.484;2022-07-19T06:38:37;46.80;20.40
68766;DHT22;55756;45.582;11.484;2022-07-19T06:41:04;47.10;20.40
68766;DHT22;55756;45.582;11.484;2022-07-19T06:43:30;47.70;20.30
68766;DHT22;55756;45.582;11.484;2022-07-19T06:45:56;49.10;19.30
68766;DHT22;55756;45.582;11.484;2022-07-19T06:48:22;50.50;17.90
68766;DHT22;55756;45.582;11.484;2022-07-19T06:50:48;51.30;17.50
68766;DHT22;55756;45.582;11.484;2022-07-19T06:53:13;51.70;17.20
68766;DHT22;55756;45.582;11.484;2022-07-19T06:55:39;52.20;17.20
68766;DHT22;55756;45.582;11.484;2022-07-19T06:58:05;53.00;16.90
68766;DHT22;55756;45.582;11.484;2022-07-19T07:00:31;53.70;16.30
68766;DHT22;55756;45.582;11.484;2022-07-19T07:02:57;54.20;15.70
68766;DHT22;55756;45.582;11.484;2022-07-19T07:05:23;53.10;15.90
68766;DHT22;55756;45.582;11.484;2022-07-19T07:07:49;52.30;16.20
68766;DHT22;55756;45.582;11.484;2022-07-19T07:10:17;50.90;16.90
68766;DHT22;55756;45.582;11.484;2022-07-19T07:12:43;49.30;16.90
68766;DHT22;55756;45.582;11.484;2022-07-19T07:15:09;50.50;16.50
68766;DHT22;55756;45.582;11.484;2022-07-19T07:17:36;51.70;15.90
68766;DHT22;55756;45.582;11.484;2022-07-19T07:20:04;53.60;15.10
68766;DHT22;55756;45.582;11.484;2022-07-19T07:22:31;55.40;13.60
68766;DHT22;55756;45.582;11.484;2022-07-19T07:24:57;57.20;12.90
68766;DHT22;55756;45.582;11.484;2022-07-19T07:27:23;58.40;11.90
68766;DHT22;55756;45.582;11.484;2022-07-19T07:29:48;58.30;11.60
68766;DHT22;55756;45.582;11.484;2022-07-19T07:32:14;58.60;11.80
68766;DHT22;55756;45.582;11.484;2022-07-19T07:34:40;59.40;11.40
68766;DHT22;55756;45.582;11.484;2022-07-19T07:37:06;60.10;10.90
68766;DHT22;55756;45.582;11.484;2022-07-19T07:39:32;59.30;11.00
68766;DHT22;55756;45.582;11.484;2022-07-19T07:41:57;58.60;11.20
68766;DHT22;55756;45.582;11.484;2022-07-19T07:44:23;56.80;11.70
68766;DHT22;55756;45.582;11.484;2022-07-19T07:46:49;56.50;11.80
68766;DHT22;55756;45.582;11.484;2022-07-19T07:49:15;57.00;12.50
68766;DHT22;55756;45.582;11.484;2022-07-19T07:51:41;55.50;13.00
68766;DHT22;55756;45.582;11.484;2022-07-19T07:54:06;55.60;13.10
68766;DHT22;55756;45.582;11.484;2022-07-19T07:56:32;55.50;13.60
68766;DHT22;55756;45.582;11.484;2022-07-19T07:58:58;56.10;13.10
68766;DHT22;55756;45.582;11.484;2022-07-19T08:01:24;55.90;13.10
68766;DHT22;55756;45.582;11.484;2022-07-19T08:03:49;55.40;13.50
68766;DHT22;55756;45.582;11.484;2022-07-19T08:06:15;55.60;13.70
68766;DHT22;55756;45.582;11.484;2022-07-19T08:08:42;55.60;13.50
68766;DHT22;55756;45.582;11.484;2022-07-19T08:11:07;54.60;13.60
68766;DHT22;55756;45.582;11.484;2022-07-19T08:13:33;54.80;13.80
68766;DHT22;55756;45.582;11.484;2022-07-19T08:15:59;55.70;13.20
68766;DHT22;55756;45.582;11.484;2022-07-19T08:18:25;56.30;13.10
68766;DHT22;55756;45.582;11.484;2022-07-19T08:20:51;56.40;12.40
68766;DHT22;55756;45.582;11.484;2022-07-19T08:23:17;55.30;12.80
68766;DHT22;55756;45.582;11.484;2022-07-19T08:25:43;54.10;13.30
68766;DHT22;55756;45.582;11.484;2022-07-19T08:28:09;51.60;14.80
68766;DHT22;55756;45.582;11.484;2022-07-19T08:30:35;49.10;16.20
68766;DHT22;55756;45.582;11.484;2022-07-19T08:33:01;47.30;17.60
68766;DHT22;55756;45.582;11.484;2022-07-19T08:35:29;45.70;18.20
68766;DHT22;55756;45.582;11.484;2022-07-19T08:37:55;43.50;18.20
68766;DHT22;55756;45.582;11.484;2022-07-19T08:40:20;41.10;20.30
68766;DHT22;55756;45.582;11.484;2022-07-19T08:42:47;40.70;21.00
68766;DHT22;55756;45.582;11.484;2022-07-19T08:45:13;40.70;20.90
68766;DHT22;55756;45.582;11.484;2022-07-19T08:47:39;40.00;21.20
68766;DHT22;55756;45.582;11.484;2022-07-19T08:50:08;39.70;21.70
68766;DHT22;55756;45.582;11.484;2022-07-19T08:52:35;39.40;22.20
68766;DHT22;55756;45.582;11.484;2022-07-19T08:55:03;39.20;22.40
68766;DHT22;55756;45.582;11.484;2022-07-19T08:57:31;38.30;23.30
68766;DHT22;55756;45.582;11.484;2022-07-19T09:00:15;38.20;23.60
68766;DHT22;55756;45.582;11.484;2022-07-19T09:02:55;37.90;24.40
68766;DHT22;55756;45.582;11.484;2022-07-19T09:05:22;37.80;24.60
68766;DHT22;55756;45.582;11.484;2022-07-19T09:10:29;38.40;25.20
68766;DHT22;55756;45.582;11.484;2022-07-19T09:13:13;38.50;24.00
68766;DHT22;55756;45.582;11.484;2022-07-19T09:15:48;38.30;24.00
68766;DHT22;55756;45.582;11.484;2022-07-19T09:18:26;37.80;24.70
68766;DHT22;55756;45.582;11.484;2022-07-19T09:20:55;37.80;24.50
68766;DHT22;55756;45.582;11.484;2022-07-19T09:23:21;37.80;24.90
68766;DHT22;55756;45.582;11.484;2022-07-19T09:25:51;37.20;25.30
68766;DHT22;55756;45.582;11.484;2022-07-19T09:28:18;36.70;25.60
68766;DHT22;55756;45.582;11.484;2022-07-19T09:30:47;36.80;26.10
68766;DHT22;55756;45.582;11.484;2022-07-19T09:33:14;37.00;25.80
68766;DHT22;55756;45.582;11.484;2022-07-19T09:35:43;37.10;26.30
68766;DHT22;55756;45.582;11.484;2022-07-19T09:38:19;37.40;25.70
68766;DHT22;55756;45.582;11.484;2022-07-19T09:40:46;37.40;25.50
68766;DHT22;55756;45.582;11.484;2022-07-19T09:43:12;37.10;26.00
68766;DHT22;55756;45.582;11.484;2022-07-19T09:45:38;36.30;26.10
68766;DHT22;55756;45.582;11.484;2022-07-19T09:48:04;36.00;26.60
68766;DHT22;55756;45.582;11.484;2022-07-19T09:50:30;35.80;26.60
68766;DHT22;55756;45.582;11.484;2022-07-19T09:53:03;35.70;27.30
68766;DHT22;55756;45.582;11.484;2022-07-19T09:55:30;35.30;27.40
68766;DHT22;55756;45.582;11.484;2022-07-19T09:57:58;35.40;27.70
68766;DHT22;55756;45.582;11.484;2022-07-19T10:00:25;35.10;28.10
68766;DHT22;55756;45.582;11.484;2022-07-19T10:02:52;35.00;28.70
68766;DHT22;55756;45.582;11.484;2022-07-19T10:05:19;35.00;28.00
68766;DHT22;55756;45.582;11.484;2022-07-19T10:07:46;35.20;27.40
68766;DHT22;55756;45.582;11.484;2022-07-19T10:10:14;35.20;28.10
68766;DHT22;55756;45.582;11.484;2022-07-19T10:12:42;34.90;28.30
68766;DHT22;55756;45.582;11.484;2022-07-19T10:15:12;35.10;28.80
68766;DHT22;55756;45.582;11.484;2022-07-19T10:20:32;35.50;28.30
68766;DHT22;55756;45.582;11.484;2022-07-19T10:23:03;35.40;27.60
68766;DHT22;55756;45.582;11.484;2022-07-19T10:25:49;35.30;27.80
68766;DHT22;55756;45.582;11.484;2022-07-19T10:28:34;35.40;27.40
68766;DHT22;55756;45.582;11.484;2022-07-19T10:31:01;35.50;27.30
68766;DHT22;55756;45.582;11.484;2022-07-19T10:33:35;35.60;27.00
68766;DHT22;55756;45.582;11.484;2022-07-19T10:36:33;35.10;28.00
68766;DHT22;55756;45.582;11.484;2022-07-19T10:44:31;35.00;27.70
68766;DHT22;55756;45.582;11.484;2022-07-19T10:46:57;35.20;27.50
68766;DHT22;55756;45.582;11.484;2022-07-19T10:49:42;35.00;27.00
68766;DHT22;55756;45.582;11.484;2022-07-19T11:00:28;34.80;28.30
68766;DHT22;55756;45.582;11.484;2022-07-19T11:05:54;34.60;28.30
68766;DHT22;55756;45.582;11.484;2022-07-19T11:13:30;35.10;28.40
68766;DHT22;55756;45.582;11.484;2022-07-19T11:15:56;34.90;28.70
68766;DHT22;55756;45.582;11.484;2022-07-19T11:18:23;35.30;28.30
68766;DHT22;55756;45.582;11.484;2022-07-19T11:20:48;35.30;28.70
68766;DHT22;55756;45.582;11.484;2022-07-19T11:23:19;35.10;28.40
68766;DHT22;55756;45.582;11.484;2022-07-19T11:25:46;34.90;28.60
68766;DHT22;55756;45.582;11.484;2022-07-19T11:28:22;35.00;28.60
68766;DHT22;55756;45.582;11.484;2022-07-19T11:30:48;34.90;28.80
68766;DHT22;55756;45.582;11.484;2022-07-19T11:33:17;34.90;28.20
68766;DHT22;55756;45.582;11.484;2022-07-19T11:35:56;34.80;28.50
68766;DHT22;55756;45.582;11.484;2022-07-19T11:38:23;34.70;28.60
68766;DHT22;55756;45.582;11.484;2022-07-19T11:40:49;34.80;29.10
68766;DHT22;55756;45.582;11.484;2022-07-19T11:43:15;34.70;28.60
68766;DHT22;55756;45.582;11.484;2022-07-19T11:45:43;35.00;28.90
68766;DHT22;55756;45.582;11.484;2022-07-19T11:48:09;35.20;28.40
68766;DHT22;55756;45.582;11.484;2022-07-19T11:50:34;35.10;28.90
68766;DHT22;55756;45.582;11.484;2022-07-19T11:53:00;34.80;29.00
68766;DHT22;55756;45.582;11.484;2022-07-19T11:55:36;34.90;29.20
68766;DHT22;55756;45.582;11.484;2022-07-19T11:58:09;35.10;28.60
68766;DHT22;55756;45.582;11.484;2022-07-19T12:00:36;35.30;28.40
68766;DHT22;55756;45.582;11.484;2022-07-19T12:03:06;35.20;28.20
68766;DHT22;55756;45.582;11.484;2022-07-19T12:05:36;35.30;28.00
68766;DHT22;55756;45.582;11.484;2022-07-19T12:08:07;35.30;28.00
68766;DHT22;55756;45.582;11.484;2022-07-19T12:13:03;35.80;28.00
68766;DHT22;55756;45.582;11.484;2022-07-19T12:16:09;35.70;28.10
68766;DHT22;55756;45.582;11.484;2022-07-19T12:24:11;35.50;28.50
68766;DHT22;55756;45.582;11.484;2022-07-19T12:26:37;35.70;27.50
68766;DHT22;55756;45.582;11.484;2022-07-19T12:31:47;35.80;27.50
68766;DHT22;55756;45.582;11.484;2022-07-19T12:34:14;35.90;28.00
68766;DHT22;55756;45.582;11.484;2022-07-19T12:36:40;36.10;28.00
68766;DHT22;55756;45.582;11.484;2022-07-19T12:39:17;36.20;26.70
68766;DHT22;55756;45.582;11.484;2022-07-19T12:42:12;36.30;26.70
68766;DHT22;55756;45.582;11.484;2022-07-19T12:44:42;36.40;26.20
68766;DHT22;55756;45.582;11.484;2022-07-19T12:47:07;36.20;26.60
68766;DHT22;55756;45.582;11.484;2022-07-19T12:49:44;36.20;26.10
68766;DHT22;55756;45.582;11.484;2022-07-19T12:52:10;36.40;25.90
68766;DHT22;55756;45.582;11.484;2022-07-19T12:54:37;36.40;25.80
68766;DHT22;55756;45.582;11.484;2022-07-19T12:57:03;36.50;25.70
68766;DHT22;55756;45.582;11.484;2022-07-19T12:59:28;36.60;25.70
68766;DHT22;55756;45.582;11.484;2022-07-19T13:02:12;36.80;25.40
68766;DHT22;55756;45.582;11.484;2022-07-19T13:04:39;36.90;25.30
68766;DHT22;55756;45.582;11.484;2022-07-19T13:07:06;37.00;25.20
68766;DHT22;55756;45.582;11.484;2022-07-19T13:09:33;37.00;25.30
68766;DHT22;55756;45.582;11.484;2022-07-19T13:12:01;37.00;25.20
68766;DHT22;55756;45.582;11.484;2022-07-19T13:14:28;36.80;26.10
68766;DHT22;55756;45.582;11.484;2022-07-19T13:16:54;36.80;26.20
68766;DHT22;55756;45.582;11.484;2022-07-19T13:19:20;36.50;26.10
68766;DHT22;55756;45.582;11.484;2022-07-19T13:21:46;36.50;26.10
68766;DHT22;55756;45.582;11.484;2022-07-19T13:24:11;36.50;25.80
68766;DHT22;55756;45.582;11.484;2022-07-19T13:26:38;36.10;26.60
68766;DHT22;55756;45.582;11.484;2022-07-19T13:29:03;36.00;26.40
68766;DHT22;55756;45.582;11.484;2022-07-19T13:31:30;35.70;26.50
68766;DHT22;55756;45.582;11.484;2022-07-19T13:33:56;35.60;26.80
68766;DHT22;55756;45.582;11.484;2022-07-19T13:36:21;35.70;26.90
68766;DHT22;55756;45.582;11.484;2022-07-19T13:38:48;35.90;26.60
68766;DHT22;55756;45.582;11.484;2022-07-19T13:41:14;36.20;26.70
68766;DHT22;55756;45.582;11.484;2022-07-19T13:43:40;36.30;26.10
68766;DHT22;55756;45.582;11.484;2022-07-19T13:46:06;36.40;26.40
68766;DHT22;55756;45.582;11.484;2022-07-19T13:48:32;36.60;26.00
68766;DHT22;55756;45.582;11.484;2022-07-19T13:50:58;36.60;26.40
68766;DHT22;55756;45.582;11.484;2022-07-19T13:53:24;36.30;26.30
68766;DHT22;55756;45.582;11.484;2022-07-19T13:55:50;36.20;26.70
68766;DHT22;55756;45.582;11.484;2022-07-19T13:58:16;36.20;26.40
68766;DHT22;55756;45.582;11.484;2022-07-19T14:00:42;36.20;26.20
68766;DHT22;55756;45.582;11.484;2022-07-19T14:03:17;36.20;25.80
68766;DHT22;55756;45.582;11.484;2022-07-19T14:05:44;36.10;26.30
68766;DHT22;55756;45.582;11.484;2022-07-19T14:08:10;36.10;26.30
68766;DHT22;55756;45.582;11.484;2022-07-19T14:10:37;36.10;25.80
68766;DHT22;55756;45.582;11.484;2022-07-19T14:13:04;36.10;26.30
68766;DHT22;55756;45.582;11.484;2022-07-19T14:15:30;36.20;26.80
68766;DHT22;55756;45.582;11.484;2022-07-19T14:17:56;36.10;26.30
68766;DHT22;55756;45.582;11.484;2022-07-19T14:20:25;36.00;26.20
68766;DHT22;55756;45.582;11.484;2022-07-19T14:22:52;36.00;26.00
68766;DHT22;55756;45.582;11.484;2022-07-19T14:25:17;35.90;26.40
68766;DHT22;55756;45.582;11.484;2022-07-19T14:27:43;35.80;26.90
68766;DHT22;55756;45.582;11.484;2022-07-19T14:30:10;35.70;27.30
68766;DHT22;55756;45.582;11.484;2022-07-19T14:32:35;35.70;26.70
68766;DHT22;55756;45.582;11.484;2022-07-19T14:35:02;35.80;28.00
68766;DHT22;55756;45.582;11.484;2022-07-19T14:37:28;35.90;27.70
68766;DHT22;55756;45.582;11.484;2022-07-19T14:39:54;35.90;27.30
68766;DHT22;55756;45.582;11.484;2022-07-19T14:42:20;35.70;26.90
68766;DHT22;55756;45.582;11.484;2022-07-19T14:44:46;35.40;26.70
68766;DHT22;55756;45.582;11.484;2022-07-19T14:47:11;35.30;27.30
68766;DHT22;55756;45.582;11.484;2022-07-19T14:49:37;35.40;27.70
68766;DHT22;55756;45.582;11.484;2022-07-19T14:52:04;35.50;27.70
68766;DHT22;55756;45.582;11.484;2022-07-19T14:54:30;35.70;27.90
68766;DHT22;55756;45.582;11.484;2022-07-19T14:56:56;35.50;26.70
68766;DHT22;55756;45.582;11.484;2022-07-19T14:59:24;35.60;27.10
68766;DHT22;55756;45.582;11.484;2022-07-19T15:01:50;35.70;28.20
68766;DHT22;55756;45.582;11.484;2022-07-19T15:04:17;35.80;27.20
68766;DHT22;55756;45.582;11.484;2022-07-19T15:06:44;35.80;27.40
68766;DHT22;55756;45.582;11.484;2022-07-19T15:09:10;35.70;27.60
68766;DHT22;55756;45.582;11.484;2022-07-19T15:11:37;35.70;27.40
68766;DHT22;55756;45.582;11.484;2022-07-19T15:14:03;35.50;26.90
68766;DHT22;55756;45.582;11.484;2022-07-19T15:16:29;35.40;27.10
68766;DHT22;55756;45.582;11.484;2022-07-19T15:18:55;35.20;28.10
68766;DHT22;55756;45.582;11.484;2022-07-19T15:21:21;35.40;27.60
68766;DHT22;55756;45.582;11.484;2022-07-19T15:23:47;35.40;26.80
68766;DHT22;55756;45.582;11.484;2022-07-19T15:26:13;35.30;28.50
68766;DHT22;55756;45.582;11.484;2022-07-19T15:28:39;35.30;27.50
68766;DHT22;55756;45.582;11.484;2022-07-19T15:31:05;35.30;27.30
68766;DHT22;55756;45.582;11.484;2022-07-19T15:33:32;35.40;27.00
68766;DHT22;55756;45.582;11.484;2022-07-19T15:35:59;35.50;27.90
68766;DHT22;55756;45.582;11.484;2022-07-19T15:38:25;35.60;27.60
68766;DHT22;55756;45.582;11.484;2022-07-19T15:40:51;35.60;27.30
68766;DHT22;55756;45.582;11.484;2022-07-19T15:43:18;35.60;27.00
68766;DHT22;55756;45.582;11.484;2022-07-19T15:45:47;35.50;27.70
68766;DHT22;55756;45.582;11.484;2022-07-19T15:48:13;35.50;27.80
68766;DHT22;55756;45.582;11.484;2022-07-19T15:50:39;35.60;28.00
68766;DHT22;55756;45.582;11.484;2022-07-19T15:53:06;35.60;27.00